FW9848 Weather Reports


Display with metric or nautical units.
time (UTC)temp
F
wind
direction
speed
MPH
gust
MPH
rain 1hr
in
rain 24hr
in
rain mn
in
humidity
%
barometer
mb
20220814093106 77 0 0.0 1.0 0.00 0.00 0.00 80 1014.9
20220814091633 77 0 0.0 1.0 0.00 0.00 0.00 80 1014.9
20220814090114 76 0 0.0 0.0 0.00 0.00 0.00 80 1015.2
20220814084620 77 0 0.0 1.0 0.00 0.00 0.00 80 1015.2
20220814083138 77 0 0.0 0.0 0.00 0.00 0.00 80 1015.4
20220814081654 77 0 0.0 0.0 0.00 0.00 0.00 79 1015.4
20220814080108 77 0 0.0 0.0 0.00 0.00 0.00 78 1015.7
20220814074628 78 0 0.0 0.0 0.00 0.00 0.00 77 1015.8
20220814073101 78 0 0.0 1.0 0.00 0.00 0.00 76 1015.8
20220814071609 78 0 0.0 2.0 0.00 0.00 0.00 76 1016.0
20220814070105 79 0 0.0 0.0 0.00 0.00 0.00 76 1016.1
20220814064611 79 0 0.0 1.0 0.00 0.00 0.00 75 1016.1
20220814063108 79 0 0.0 1.0 0.00 0.00 0.00 75 1016.1
20220814061611 79 0 0.0 1.0 0.00 0.00 0.00 75 1016.2
20220814060103 80 0 0.0 1.0 0.00 0.00 0.00 75 1016.3
20220814054607 80 0 0.0 1.0 0.00 0.00 0.00 74 1016.3
20220814053108 80 0 0.0 1.0 0.00 0.00 0.00 74 1016.3
20220814051607 80 0 0.0 1.0 0.00 0.00 0.00 73 1016.2
20220814050108 81 0 0.0 1.0 0.00 0.00 0.00 73 1016.2
20220814044604 81 28 0.0 3.0 0.00 0.00 0.00 72 1016.2
20220814043133 82 0 0.0 1.0 0.00 0.00 0.00 72 1016.0
20220814041616 82 0 0.0 3.0 0.00 0.00 0.00 71 1015.9
20220814040118 83 57 0.0 2.0 0.00 0.00 0.00 69 1015.8
20220814034604 83 0 0.0 2.0 0.00 0.00 0.00 68 1015.6
20220814033125 84 0 0.0 3.0 0.00 0.00 0.00 66 1015.6
20220814031605 85 0 0.0 3.0 0.00 0.00 0.00 64 1015.4
20220814030117 86 340 0.0 5.0 0.00 0.00 0.00 62 1015.2
20220814024636 87 80 0.0 4.0 0.00 0.00 0.00 60 1015.1
20220814023100 87 177 1.0 5.0 0.00 0.00 0.00 58 1014.9
20220814021607 88 0 1.0 8.0 0.00 0.00 0.00 56 1014.5
20220814020127 89 42 2.0 7.0 0.00 0.00 0.00 55 1014.4
20220814014623 90 244 2.0 5.0 0.00 0.00 0.00 54 1014.4
20220814013106 91 18 1.0 9.0 0.00 0.00 0.00 51 1014.2
20220814011604 92 89 1.0 7.0 0.00 0.00 0.00 49 1013.9
20220814010107 93 43 4.0 12.0 0.00 0.00 0.00 46 1013.6
20220814004645 96 101 2.0 10.0 0.00 0.00 0.00 38 1013.2
20220814003104 96 309 1.0 11.0 0.00 0.00 0.00 37 1013.2
20220814001617 96 300 0.0 8.0 0.00 0.00 0.00 38 1013.1
20220814000210 97 246 2.0 8.0 0.00 0.00 0.00 36 1013.1
20220813234604 97 302 1.0 8.0 0.00 0.00 0.00 36 1013.2
20220813233115 97 59 3.0 9.0 0.00 0.00 0.00 35 1013.2
20220813231634 99 44 3.0 9.0 0.00 0.00 0.00 34 1013.5
20220813230109 99 52 2.0 9.0 0.00 0.00 0.00 34 1013.6
20220813224600 99 61 3.0 9.0 0.00 0.00 0.00 34 1013.5
20220813223127 99 240 2.0 10.0 0.00 0.00 0.00 35 1013.8
20220813221619 99 84 3.0 13.0 0.00 0.00 0.00 35 1014.0
20220813220118 99 269 2.0 9.0 0.00 0.00 0.00 36 1014.1
20220813214649 98 49 2.0 11.0 0.00 0.00 0.00 37 1014.1
20220813213104 99 34 2.0 8.0 0.00 0.00 0.00 37 1014.3
20220813211610 98 311 2.0 9.0 0.00 0.00 0.00 37 1014.6
20220813210111 98 253 2.0 11.0 0.00 0.00 0.00 37 1014.5
20220813204605 98 269 2.0 7.0 0.00 0.00 0.00 37 1014.9
20220813203133 98 57 2.0 6.0 0.00 0.00 0.00 37 1015.1
20220813201609 98 0 2.0 10.0 0.00 0.00 0.00 38 1015.4
20220813200136 96 0 2.0 8.0 0.00 0.00 0.00 41 1015.6
20220813194615 97 224 2.0 10.0 0.00 0.00 0.00 40 1016.0
20220813193126 99 213 2.0 10.0 0.00 0.00 0.00 37 1016.1
20220813191700 99 53 1.0 7.0 0.00 0.00 0.00 38 1016.4
20220813190108 97 269 1.0 9.0 0.00 0.00 0.00 41 1016.4
20220813184602 97 53 2.0 6.0 0.00 0.00 0.00 41 1016.6
20220813183111 97 218 2.0 7.0 0.00 0.00 0.00 41 1016.8
20220813181607 97 128 1.0 6.0 0.00 0.00 0.00 43 1017.1
20220813180125 95 68 2.0 8.0 0.00 0.00 0.00 43 1017.3
20220813174607 95 257 2.0 8.0 0.00 0.00 0.00 45 1017.4
20220813173058 94 330 1.0 10.0 0.00 0.00 0.00 46 1017.7
20220813171621 93 336 2.0 10.0 0.00 0.00 0.00 48 1018.0
20220813170110 91 0 2.0 6.0 0.00 0.00 0.00 50 1018.1
20220813164559 89 222 2.0 6.0 0.00 0.00 0.00 52 1018.4
20220813163120 90 0 2.0 5.0 0.00 0.00 0.00 53 1018.6
20220813161604 90 0 0.0 9.0 0.00 0.00 0.00 53 1018.7
20220813160112 90 292 3.0 7.0 0.00 0.00 0.00 53 1018.6
20220813154604 90 249 1.0 6.0 0.00 0.00 0.00 52 1018.5
20220813153107 90 269 0.0 4.0 0.00 0.00 0.00 55 1018.5
20220813151609 88 256 2.0 7.0 0.00 0.00 0.00 56 1018.5
20220813150144 89 0 0.0 5.0 0.00 0.00 0.00 56 1018.4
20220813144644 89 0 0.0 3.0 0.00 0.00 0.00 56 1018.4
20220813143118 87 0 0.0 4.0 0.00 0.00 0.00 62 1018.3
20220813141620 87 0 0.0 2.0 0.00 0.00 0.00 64 1018.3
20220813140107 86 0 0.0 2.0 0.00 0.00 0.00 68 1018.3
20220813134609 84 262 0.0 2.0 0.00 0.00 0.00 71 1018.3
20220813133106 83 254 0.0 2.0 0.00 0.00 0.00 72 1018.0
20220813131607 82 248 0.0 2.0 0.00 0.00 0.00 73 1017.9
20220813130059 81 0 0.0 0.0 0.00 0.00 0.00 76 1018.0
20220813124639 78 0 0.0 1.0 0.00 0.00 0.00 80 1017.9
20220813123106 76 0 0.0 0.0 0.00 0.00 0.00 82 1017.9
20220813121616 76 0 0.0 0.0 0.00 0.00 0.00 82 1017.9
20220813120120 76 0 0.0 0.0 0.00 0.00 0.00 82 1017.7
20220813114611 76 0 0.0 0.0 0.00 0.00 0.00 83 1017.7
20220813113110 76 0 0.0 0.0 0.00 0.00 0.00 83 1017.7
20220813111643 76 0 0.0 0.0 0.00 0.00 0.00 82 1017.5
20220813110121 76 0 0.0 0.0 0.00 0.00 0.00 82 1017.5
20220813104606 77 0 0.0 0.0 0.00 0.00 0.00 81 1017.4
20220813103057 77 0 0.0 0.0 0.00 0.00 0.00 81 1017.5
20220813101558 77 0 0.0 0.0 0.00 0.00 0.00 81 1017.4
20220813100109 77 0 0.0 0.0 0.00 0.00 0.00 81 1017.4
20220813094610 77 0 0.0 0.0 0.00 0.00 0.00 81 1017.5